Decoded Metar for NCRG (AVARUA in COOK ISLANDS) (IATA:RAR) | Meteo·Mobile Aviation Weather
aviador You're here:

NCRG Decoded Metar

AVARUA in COOK ISLANDS
Report Time2019-01-17 00:00:00
UTC Time2019-01-17 00:08:14
Flight Rules vfr VFR
Wind100° at 11 kt
W.Decomp.*RWY 08: 10.9 kt HW 1.1 kt RCW
W.Rank100° ranks 2
Current wind is above 100° avg. (7.3)
Visibility9999 m
Phenomena:N/A
Clouds:Scattered 018 Hf
Broken 045 Hf
Expected CloudBase > 3,200 ft AGL from Temp-Dew spread
Ceiling4,500 ft
Temp30°C (ISA +15)
Dew Point22°C (62% RH)
Heat Index33.2°C
QNH1011 hPa
Density Alt2,162 ft
Elevation23 ft
Report Wrong Elevation
Raw Report
METAR NCRG 170000Z 10011KT 9999 SCT018 BKN045 30/22 Q1011=

Extra information for NCRG:More info

Metar Taf Metar & Taf Last 4 Metars F.Rules Stats Wind Profile Meteogram Temp Stats Airport Information Weather charts Add Link Nearby VenuesMetar ALERT Operation Metar Decoded Social comments